sensor_id;sensor_type;location;lat;lon;timestamp;P1;durP1;ratioP1;P2;durP2;ratioP2
43154;SDS011;34212;51.018;13.586;2023-07-13T00:00:43;3.85;;;2.17;;
43154;SDS011;34212;51.018;13.586;2023-07-13T00:05:44;2.70;;;1.80;;
43154;SDS011;34212;51.018;13.586;2023-07-13T00:10:46;2.60;;;1.90;;
43154;SDS011;34212;51.018;13.586;2023-07-13T00:15:47;2.42;;;2.15;;
43154;SDS011;34212;51.018;13.586;2023-07-13T00:20:49;3.85;;;1.80;;
43154;SDS011;34212;51.018;13.586;2023-07-13T00:25:51;8.38;;;1.95;;
43154;SDS011;34212;51.018;13.586;2023-07-13T00:30:53;3.78;;;1.60;;
43154;SDS011;34212;51.018;13.586;2023-07-13T00:35:55;2.20;;;1.85;;
43154;SDS011;34212;51.018;13.586;2023-07-13T00:51:00;2.60;;;2.38;;
43154;SDS011;34212;51.018;13.586;2023-07-13T00:56:03;7.03;;;2.22;;
43154;SDS011;34212;51.018;13.586;2023-07-13T01:01:05;3.53;;;2.28;;
43154;SDS011;34212;51.018;13.586;2023-07-13T01:06:07;4.55;;;2.03;;
43154;SDS011;34212;51.018;13.586;2023-07-13T01:11:10;5.70;;;2.45;;
43154;SDS011;34212;51.018;13.586;2023-07-13T01:16:24;5.20;;;2.20;;
43154;SDS011;34212;51.018;13.586;2023-07-13T01:21:28;3.58;;;2.30;;
43154;SDS011;34212;51.018;13.586;2023-07-13T01:26:33;4.25;;;2.70;;
43154;SDS011;34212;51.018;13.586;2023-07-13T01:31:34;8.20;;;2.47;;
43154;SDS011;34212;51.018;13.586;2023-07-13T01:36:36;4.65;;;2.55;;
43154;SDS011;34212;51.018;13.586;2023-07-13T01:41:39;4.47;;;2.38;;
43154;SDS011;34212;51.018;13.586;2023-07-13T01:46:41;4.28;;;2.90;;
43154;SDS011;34212;51.018;13.586;2023-07-13T01:51:43;3.72;;;2.20;;
43154;SDS011;34212;51.018;13.586;2023-07-13T01:56:45;4.57;;;2.50;;
43154;SDS011;34212;51.018;13.586;2023-07-13T02:01:46;4.28;;;2.50;;
43154;SDS011;34212;51.018;13.586;2023-07-13T02:06:48;5.03;;;2.78;;
43154;SDS011;34212;51.018;13.586;2023-07-13T02:11:50;11.18;;;3.22;;
43154;SDS011;34212;51.018;13.586;2023-07-13T02:16:51;4.63;;;2.47;;
43154;SDS011;34212;51.018;13.586;2023-07-13T02:21:53;5.80;;;2.67;;
43154;SDS011;34212;51.018;13.586;2023-07-13T02:26:54;5.82;;;3.00;;
43154;SDS011;34212;51.018;13.586;2023-07-13T02:31:56;9.20;;;2.58;;
43154;SDS011;34212;51.018;13.586;2023-07-13T02:36:57;4.85;;;2.45;;
43154;SDS011;34212;51.018;13.586;2023-07-13T02:41:59;9.52;;;2.70;;
43154;SDS011;34212;51.018;13.586;2023-07-13T02:47:01;9.70;;;2.47;;
43154;SDS011;34212;51.018;13.586;2023-07-13T02:52:03;4.57;;;3.08;;
43154;SDS011;34212;51.018;13.586;2023-07-13T03:02:07;3.93;;;2.50;;
43154;SDS011;34212;51.018;13.586;2023-07-13T03:17:13;4.80;;;2.77;;
43154;SDS011;34212;51.018;13.586;2023-07-13T03:22:16;3.53;;;2.53;;
43154;SDS011;34212;51.018;13.586;2023-07-13T03:27:18;3.47;;;2.47;;
43154;SDS011;34212;51.018;13.586;2023-07-13T03:32:22;4.35;;;2.70;;
43154;SDS011;34212;51.018;13.586;2023-07-13T03:37:24;3.08;;;2.50;;
43154;SDS011;34212;51.018;13.586;2023-07-13T03:42:26;5.60;;;3.55;;
43154;SDS011;34212;51.018;13.586;2023-07-13T03:47:28;4.93;;;2.70;;
43154;SDS011;34212;51.018;13.586;2023-07-13T03:52:30;3.15;;;2.63;;
43154;SDS011;34212;51.018;13.586;2023-07-13T03:57:32;5.50;;;2.85;;
43154;SDS011;34212;51.018;13.586;2023-07-13T04:02:33;4.85;;;2.90;;
43154;SDS011;34212;51.018;13.586;2023-07-13T04:07:36;4.93;;;2.30;;
43154;SDS011;34212;51.018;13.586;2023-07-13T04:12:37;6.65;;;3.28;;
43154;SDS011;34212;51.018;13.586;2023-07-13T04:17:38;5.75;;;2.85;;
43154;SDS011;34212;51.018;13.586;2023-07-13T04:22:40;3.42;;;3.13;;
43154;SDS011;34212;51.018;13.586;2023-07-13T04:27:42;5.45;;;2.90;;
43154;SDS011;34212;51.018;13.586;2023-07-13T04:32:43;5.85;;;3.00;;
43154;SDS011;34212;51.018;13.586;2023-07-13T04:37:45;5.80;;;2.97;;
43154;SDS011;34212;51.018;13.586;2023-07-13T04:42:46;5.40;;;2.83;;
43154;SDS011;34212;51.018;13.586;2023-07-13T04:52:50;7.78;;;2.90;;
43154;SDS011;34212;51.018;13.586;2023-07-13T04:57:52;4.93;;;2.72;;
43154;SDS011;34212;51.018;13.586;2023-07-13T05:02:57;13.25;;;3.55;;
43154;SDS011;34212;51.018;13.586;2023-07-13T05:07:59;3.95;;;3.30;;
43154;SDS011;34212;51.018;13.586;2023-07-13T05:13:01;8.60;;;3.60;;
43154;SDS011;34212;51.018;13.586;2023-07-13T05:18:02;5.13;;;3.05;;
43154;SDS011;34212;51.018;13.586;2023-07-13T05:23:04;3.90;;;3.50;;
43154;SDS011;34212;51.018;13.586;2023-07-13T05:28:06;8.00;;;3.45;;
43154;SDS011;34212;51.018;13.586;2023-07-13T05:33:07;5.05;;;3.08;;
43154;SDS011;34212;51.018;13.586;2023-07-13T05:38:09;4.55;;;3.28;;
43154;SDS011;34212;51.018;13.586;2023-07-13T05:43:10;5.55;;;3.28;;
43154;SDS011;34212;51.018;13.586;2023-07-13T05:48:12;4.80;;;3.00;;
43154;SDS011;34212;51.018;13.586;2023-07-13T05:53:14;6.65;;;3.38;;
43154;SDS011;34212;51.018;13.586;2023-07-13T05:58:16;2.63;;;2.33;;
43154;SDS011;34212;51.018;13.586;2023-07-13T06:03:18;7.55;;;3.25;;
43154;SDS011;34212;51.018;13.586;2023-07-13T06:08:19;5.05;;;2.95;;
43154;SDS011;34212;51.018;13.586;2023-07-13T06:13:21;3.17;;;2.88;;
43154;SDS011;34212;51.018;13.586;2023-07-13T06:18:23;3.30;;;2.67;;
43154;SDS011;34212;51.018;13.586;2023-07-13T06:23:24;12.63;;;2.58;;
43154;SDS011;34212;51.018;13.586;2023-07-13T06:28:27;5.65;;;2.80;;
43154;SDS011;34212;51.018;13.586;2023-07-13T06:33:30;3.65;;;2.45;;
43154;SDS011;34212;51.018;13.586;2023-07-13T06:38:31;7.95;;;2.38;;
43154;SDS011;34212;51.018;13.586;2023-07-13T06:43:33;3.38;;;2.30;;
43154;SDS011;34212;51.018;13.586;2023-07-13T06:48:35;3.00;;;2.00;;
43154;SDS011;34212;51.018;13.586;2023-07-13T06:53:37;5.25;;;2.25;;
43154;SDS011;34212;51.018;13.586;2023-07-13T06:58:38;4.60;;;2.05;;
43154;SDS011;34212;51.018;13.586;2023-07-13T07:03:40;6.53;;;2.47;;
43154;SDS011;34212;51.018;13.586;2023-07-13T07:13:43;5.97;;;2.13;;
43154;SDS011;34212;51.018;13.586;2023-07-13T07:18:45;3.05;;;2.08;;
43154;SDS011;34212;51.018;13.586;2023-07-13T07:23:47;5.93;;;2.10;;
43154;SDS011;34212;51.018;13.586;2023-07-13T07:28:48;7.95;;;2.22;;
43154;SDS011;34212;51.018;13.586;2023-07-13T07:34:10;2.67;;;1.92;;
43154;SDS011;34212;51.018;13.586;2023-07-13T07:39:11;4.65;;;1.70;;
43154;SDS011;34212;51.018;13.586;2023-07-13T07:44:13;2.78;;;2.03;;
43154;SDS011;34212;51.018;13.586;2023-07-13T07:49:15;10.45;;;1.88;;
43154;SDS011;34212;51.018;13.586;2023-07-13T07:54:16;3.53;;;1.70;;
43154;SDS011;34212;51.018;13.586;2023-07-13T08:04:42;2.95;;;1.65;;
43154;SDS011;34212;51.018;13.586;2023-07-13T08:10:05;3.88;;;1.70;;
43154;SDS011;34212;51.018;13.586;2023-07-13T08:15:13;3.95;;;1.88;;
43154;SDS011;34212;51.018;13.586;2023-07-13T08:20:16;7.50;;;1.70;;
43154;SDS011;34212;51.018;13.586;2023-07-13T08:30:19;3.38;;;1.67;;
43154;SDS011;34212;51.018;13.586;2023-07-13T08:40:23;3.97;;;2.13;;
43154;SDS011;34212;51.018;13.586;2023-07-13T08:45:32;3.85;;;2.13;;
43154;SDS011;34212;51.018;13.586;2023-07-13T08:50:49;4.83;;;2.00;;
43154;SDS011;34212;51.018;13.586;2023-07-13T08:56:18;5.60;;;1.80;;
43154;SDS011;34212;51.018;13.586;2023-07-13T09:01:28;3.45;;;1.90;;
43154;SDS011;34212;51.018;13.586;2023-07-13T09:06:35;3.70;;;2.08;;
43154;SDS011;34212;51.018;13.586;2023-07-13T09:11:54;3.50;;;1.67;;
43154;SDS011;34212;51.018;13.586;2023-07-13T09:17:08;4.60;;;2.20;;
43154;SDS011;34212;51.018;13.586;2023-07-13T09:22:17;3.37;;;1.97;;
43154;SDS011;34212;51.018;13.586;2023-07-13T09:27:26;3.47;;;2.05;;
43154;SDS011;34212;51.018;13.586;2023-07-13T09:32:52;5.43;;;1.90;;
43154;SDS011;34212;51.018;13.586;2023-07-13T09:37:59;5.53;;;2.35;;
43154;SDS011;34212;51.018;13.586;2023-07-13T09:43:06;10.52;;;2.45;;
43154;SDS011;34212;51.018;13.586;2023-07-13T09:48:12;2.67;;;1.98;;
43154;SDS011;34212;51.018;13.586;2023-07-13T09:53:16;3.72;;;2.40;;
43154;SDS011;34212;51.018;13.586;2023-07-13T09:58:22;5.15;;;1.70;;
43154;SDS011;34212;51.018;13.586;2023-07-13T10:03:29;2.28;;;1.60;;
43154;SDS011;34212;51.018;13.586;2023-07-13T10:08:37;2.47;;;1.55;;
43154;SDS011;34212;51.018;13.586;2023-07-13T10:13:40;3.38;;;1.70;;
43154;SDS011;34212;51.018;13.586;2023-07-13T10:18:46;5.22;;;1.83;;
43154;SDS011;34212;51.018;13.586;2023-07-13T10:23:54;3.38;;;1.67;;
43154;SDS011;34212;51.018;13.586;2023-07-13T10:29:03;4.53;;;1.83;;
43154;SDS011;34212;51.018;13.586;2023-07-13T10:34:11;5.10;;;1.70;;
43154;SDS011;34212;51.018;13.586;2023-07-13T10:44:22;1.77;;;1.30;;
43154;SDS011;34212;51.018;13.586;2023-07-13T10:49:27;4.57;;;1.80;;
43154;SDS011;34212;51.018;13.586;2023-07-13T10:54:32;2.85;;;1.48;;
43154;SDS011;34212;51.018;13.586;2023-07-13T10:59:36;4.60;;;1.92;;
43154;SDS011;34212;51.018;13.586;2023-07-13T11:04:44;4.70;;;1.60;;
43154;SDS011;34212;51.018;13.586;2023-07-13T11:09:50;7.75;;;2.22;;
43154;SDS011;34212;51.018;13.586;2023-07-13T11:40:30;4.22;;;1.83;;
43154;SDS011;34212;51.018;13.586;2023-07-13T11:45:32;4.40;;;1.92;;
43154;SDS011;34212;51.018;13.586;2023-07-13T11:50:51;4.43;;;1.70;;
43154;SDS011;34212;51.018;13.586;2023-07-13T11:55:56;6.20;;;2.17;;
43154;SDS011;34212;51.018;13.586;2023-07-13T12:00:59;11.20;;;2.67;;
43154;SDS011;34212;51.018;13.586;2023-07-13T12:06:06;6.03;;;1.90;;
43154;SDS011;34212;51.018;13.586;2023-07-13T12:11:25;3.70;;;1.90;;
43154;SDS011;34212;51.018;13.586;2023-07-13T12:16:31;4.93;;;2.10;;
43154;SDS011;34212;51.018;13.586;2023-07-13T12:21:36;2.55;;;1.65;;
43154;SDS011;34212;51.018;13.586;2023-07-13T12:26:40;2.75;;;1.60;;
43154;SDS011;34212;51.018;13.586;2023-07-13T12:31:42;5.32;;;1.95;;
43154;SDS011;34212;51.018;13.586;2023-07-13T12:37:01;4.70;;;2.03;;
43154;SDS011;34212;51.018;13.586;2023-07-13T12:47:26;2.85;;;1.70;;
43154;SDS011;34212;51.018;13.586;2023-07-13T12:52:30;5.00;;;2.17;;
43154;SDS011;34212;51.018;13.586;2023-07-13T12:57:44;3.70;;;1.80;;
43154;SDS011;34212;51.018;13.586;2023-07-13T13:02:52;2.75;;;1.70;;
43154;SDS011;34212;51.018;13.586;2023-07-13T13:08:16;2.90;;;1.50;;
43154;SDS011;34212;51.018;13.586;2023-07-13T13:13:17;3.33;;;1.40;;
43154;SDS011;34212;51.018;13.586;2023-07-13T13:18:19;4.35;;;1.70;;
43154;SDS011;34212;51.018;13.586;2023-07-13T13:23:23;4.90;;;2.47;;
43154;SDS011;34212;51.018;13.586;2023-07-13T13:28:26;4.40;;;1.60;;
43154;SDS011;34212;51.018;13.586;2023-07-13T13:33:28;4.38;;;1.55;;
43154;SDS011;34212;51.018;13.586;2023-07-13T13:38:29;8.02;;;1.65;;
43154;SDS011;34212;51.018;13.586;2023-07-13T13:43:32;5.68;;;1.50;;
43154;SDS011;34212;51.018;13.586;2023-07-13T13:48:34;3.92;;;1.67;;
43154;SDS011;34212;51.018;13.586;2023-07-13T13:53:38;2.63;;;1.50;;
43154;SDS011;34212;51.018;13.586;2023-07-13T13:58:40;2.75;;;1.63;;
43154;SDS011;34212;51.018;13.586;2023-07-13T14:03:41;2.80;;;1.90;;
43154;SDS011;34212;51.018;13.586;2023-07-13T14:08:44;3.90;;;2.05;;
43154;SDS011;34212;51.018;13.586;2023-07-13T14:13:47;3.28;;;1.60;;
43154;SDS011;34212;51.018;13.586;2023-07-13T14:18:51;2.60;;;1.42;;
43154;SDS011;34212;51.018;13.586;2023-07-13T14:23:52;2.67;;;1.30;;
43154;SDS011;34212;51.018;13.586;2023-07-13T14:28:55;3.40;;;1.60;;
43154;SDS011;34212;51.018;13.586;2023-07-13T14:33:57;3.95;;;1.77;;
43154;SDS011;34212;51.018;13.586;2023-07-13T14:39:14;2.33;;;1.38;;
43154;SDS011;34212;51.018;13.586;2023-07-13T14:44:21;3.17;;;1.38;;
43154;SDS011;34212;51.018;13.586;2023-07-13T14:49:27;4.30;;;1.70;;
43154;SDS011;34212;51.018;13.586;2023-07-13T14:54:30;2.88;;;1.63;;
43154;SDS011;34212;51.018;13.586;2023-07-13T14:59:32;3.65;;;1.55;;
43154;SDS011;34212;51.018;13.586;2023-07-13T15:04:33;4.47;;;1.80;;
43154;SDS011;34212;51.018;13.586;2023-07-13T15:09:35;3.05;;;1.38;;
43154;SDS011;34212;51.018;13.586;2023-07-13T15:14:36;7.03;;;1.25;;
43154;SDS011;34212;51.018;13.586;2023-07-13T15:19:38;10.43;;;1.80;;
43154;SDS011;34212;51.018;13.586;2023-07-13T15:24:39;6.88;;;2.35;;
43154;SDS011;34212;51.018;13.586;2023-07-13T15:29:41;5.65;;;1.60;;
43154;SDS011;34212;51.018;13.586;2023-07-13T15:34:44;1.67;;;1.20;;
43154;SDS011;34212;51.018;13.586;2023-07-13T15:39:45;3.47;;;1.30;;
43154;SDS011;34212;51.018;13.586;2023-07-13T15:44:47;1.45;;;1.00;;
43154;SDS011;34212;51.018;13.586;2023-07-13T15:49:49;3.55;;;1.00;;
43154;SDS011;34212;51.018;13.586;2023-07-13T15:54:50;8.27;;;1.10;;
43154;SDS011;34212;51.018;13.586;2023-07-13T15:59:52;13.15;;;1.58;;
43154;SDS011;34212;51.018;13.586;2023-07-13T16:04:54;52.25;;;2.95;;
43154;SDS011;34212;51.018;13.586;2023-07-13T16:09:55;6.35;;;1.25;;
43154;SDS011;34212;51.018;13.586;2023-07-13T16:14:57;4.53;;;1.10;;
43154;SDS011;34212;51.018;13.586;2023-07-13T16:19:58;3.75;;;1.02;;
43154;SDS011;34212;51.018;13.586;2023-07-13T16:25:00;6.75;;;1.20;;
43154;SDS011;34212;51.018;13.586;2023-07-13T16:30:09;6.80;;;1.40;;
43154;SDS011;34212;51.018;13.586;2023-07-13T16:35:13;5.40;;;1.40;;
43154;SDS011;34212;51.018;13.586;2023-07-13T16:40:25;3.88;;;1.67;;
43154;SDS011;34212;51.018;13.586;2023-07-13T16:45:29;3.80;;;2.20;;
43154;SDS011;34212;51.018;13.586;2023-07-13T16:50:37;2.70;;;1.67;;
43154;SDS011;34212;51.018;13.586;2023-07-13T16:55:40;6.30;;;2.08;;
43154;SDS011;34212;51.018;13.586;2023-07-13T17:00:41;5.07;;;1.92;;
43154;SDS011;34212;51.018;13.586;2023-07-13T17:05:44;3.22;;;2.13;;
43154;SDS011;34212;51.018;13.586;2023-07-13T17:10:47;4.82;;;1.95;;
43154;SDS011;34212;51.018;13.586;2023-07-13T17:15:50;3.40;;;2.10;;
43154;SDS011;34212;51.018;13.586;2023-07-13T17:21:00;3.83;;;2.05;;
43154;SDS011;34212;51.018;13.586;2023-07-13T17:26:03;6.10;;;1.88;;
43154;SDS011;34212;51.018;13.586;2023-07-13T17:31:05;5.53;;;2.08;;
43154;SDS011;34212;51.018;13.586;2023-07-13T17:36:11;3.22;;;1.70;;
43154;SDS011;34212;51.018;13.586;2023-07-13T17:41:15;2.88;;;1.52;;
43154;SDS011;34212;51.018;13.586;2023-07-13T17:46:17;3.05;;;1.85;;
43154;SDS011;34212;51.018;13.586;2023-07-13T17:51:23;5.40;;;1.73;;
43154;SDS011;34212;51.018;13.586;2023-07-13T17:56:25;3.30;;;1.33;;
43154;SDS011;34212;51.018;13.586;2023-07-13T18:01:26;2.58;;;1.42;;
43154;SDS011;34212;51.018;13.586;2023-07-13T18:06:34;1.65;;;1.40;;
43154;SDS011;34212;51.018;13.586;2023-07-13T18:11:38;3.40;;;1.35;;
43154;SDS011;34212;51.018;13.586;2023-07-13T18:16:40;4.32;;;1.40;;
43154;SDS011;34212;51.018;13.586;2023-07-13T18:21:47;6.07;;;1.83;;
43154;SDS011;34212;51.018;13.586;2023-07-13T18:26:48;1.98;;;1.20;;
43154;SDS011;34212;51.018;13.586;2023-07-13T18:31:50;7.32;;;1.42;;
43154;SDS011;34212;51.018;13.586;2023-07-13T18:36:52;4.47;;;1.33;;
43154;SDS011;34212;51.018;13.586;2023-07-13T18:41:54;1.55;;;1.20;;
43154;SDS011;34212;51.018;13.586;2023-07-13T18:46:56;2.55;;;1.50;;
43154;SDS011;34212;51.018;13.586;2023-07-13T18:51:58;4.25;;;1.20;;
43154;SDS011;34212;51.018;13.586;2023-07-13T19:02:01;5.75;;;1.33;;
43154;SDS011;34212;51.018;13.586;2023-07-13T19:07:04;2.40;;;1.33;;
43154;SDS011;34212;51.018;13.586;2023-07-13T19:12:15;3.03;;;1.40;;
43154;SDS011;34212;51.018;13.586;2023-07-13T19:17:19;2.77;;;1.40;;
43154;SDS011;34212;51.018;13.586;2023-07-13T19:22:21;2.63;;;1.42;;
43154;SDS011;34212;51.018;13.586;2023-07-13T19:27:23;3.28;;;1.63;;
43154;SDS011;34212;51.018;13.586;2023-07-13T19:32:24;3.72;;;1.50;;
43154;SDS011;34212;51.018;13.586;2023-07-13T19:37:26;5.85;;;1.73;;
43154;SDS011;34212;51.018;13.586;2023-07-13T19:42:27;3.28;;;1.38;;
43154;SDS011;34212;51.018;13.586;2023-07-13T19:47:30;4.03;;;1.73;;
43154;SDS011;34212;51.018;13.586;2023-07-13T19:52:31;3.42;;;1.23;;
43154;SDS011;34212;51.018;13.586;2023-07-13T19:57:33;3.50;;;1.95;;
43154;SDS011;34212;51.018;13.586;2023-07-13T20:02:35;3.42;;;1.50;;
43154;SDS011;34212;51.018;13.586;2023-07-13T20:12:38;4.73;;;1.43;;
43154;SDS011;34212;51.018;13.586;2023-07-13T20:17:39;6.40;;;1.50;;
43154;SDS011;34212;51.018;13.586;2023-07-13T20:22:42;4.82;;;1.65;;
43154;SDS011;34212;51.018;13.586;2023-07-13T20:27:44;3.17;;;1.80;;
43154;SDS011;34212;51.018;13.586;2023-07-13T20:32:46;6.82;;;2.63;;
43154;SDS011;34212;51.018;13.586;2023-07-13T20:37:48;6.15;;;2.63;;
43154;SDS011;34212;51.018;13.586;2023-07-13T20:42:53;2.88;;;1.70;;
43154;SDS011;34212;51.018;13.586;2023-07-13T20:47:57;3.28;;;1.40;;
43154;SDS011;34212;51.018;13.586;2023-07-13T20:53:02;5.78;;;1.50;;
43154;SDS011;34212;51.018;13.586;2023-07-13T20:58:04;2.53;;;1.58;;
43154;SDS011;34212;51.018;13.586;2023-07-13T21:03:06;4.05;;;2.33;;
43154;SDS011;34212;51.018;13.586;2023-07-13T21:08:16;3.33;;;1.70;;
43154;SDS011;34212;51.018;13.586;2023-07-13T21:13:20;3.25;;;1.75;;
43154;SDS011;34212;51.018;13.586;2023-07-13T21:23:34;3.30;;;1.52;;
43154;SDS011;34212;51.018;13.586;2023-07-13T21:28:40;3.13;;;1.48;;
43154;SDS011;34212;51.018;13.586;2023-07-13T21:33:44;3.95;;;1.63;;
43154;SDS011;34212;51.018;13.586;2023-07-13T21:38:45;5.30;;;1.42;;
43154;SDS011;34212;51.018;13.586;2023-07-13T21:43:53;6.13;;;1.98;;
43154;SDS011;34212;51.018;13.586;2023-07-13T21:48:55;2.58;;;1.70;;
43154;SDS011;34212;51.018;13.586;2023-07-13T21:53:57;4.78;;;1.80;;
43154;SDS011;34212;51.018;13.586;2023-07-13T21:58:59;5.25;;;1.40;;
43154;SDS011;34212;51.018;13.586;2023-07-13T22:04:00;4.38;;;1.77;;
43154;SDS011;34212;51.018;13.586;2023-07-13T22:09:02;3.95;;;1.52;;
43154;SDS011;34212;51.018;13.586;2023-07-13T22:14:03;2.92;;;1.58;;
43154;SDS011;34212;51.018;13.586;2023-07-13T22:19:11;3.33;;;1.83;;
43154;SDS011;34212;51.018;13.586;2023-07-13T22:24:15;10.40;;;2.50;;
43154;SDS011;34212;51.018;13.586;2023-07-13T22:29:23;5.90;;;1.70;;
43154;SDS011;34212;51.018;13.586;2023-07-13T22:34:28;6.15;;;1.65;;
43154;SDS011;34212;51.018;13.586;2023-07-13T22:39:31;1.98;;;1.50;;
43154;SDS011;34212;51.018;13.586;2023-07-13T22:44:33;3.50;;;1.70;;
43154;SDS011;34212;51.018;13.586;2023-07-13T22:49:35;2.80;;;1.48;;
43154;SDS011;34212;51.018;13.586;2023-07-13T22:54:36;3.50;;;1.88;;
43154;SDS011;34212;51.018;13.586;2023-07-13T23:04:40;2.10;;;1.63;;
43154;SDS011;34212;51.018;13.586;2023-07-13T23:09:41;2.78;;;1.83;;
43154;SDS011;34212;51.018;13.586;2023-07-13T23:15:05;2.90;;;1.80;;
43154;SDS011;34212;51.018;13.586;2023-07-13T23:25:35;5.60;;;1.70;;
43154;SDS011;34212;51.018;13.586;2023-07-13T23:30:37;3.58;;;1.90;;
43154;SDS011;34212;51.018;13.586;2023-07-13T23:35:45;2.88;;;1.67;;
43154;SDS011;34212;51.018;13.586;2023-07-13T23:40:47;3.30;;;1.90;;
43154;SDS011;34212;51.018;13.586;2023-07-13T23:45:48;3.55;;;1.80;;
43154;SDS011;34212;51.018;13.586;2023-07-13T23:50:50;3.88;;;1.83;;
43154;SDS011;34212;51.018;13.586;2023-07-13T23:55:53;7.20;;;1.85;;
